Time;durP1;ratioP1;P1;durP2;ratioP2;P2;SDS_P1;SDS_P2;PMS_P1;PMS_P2;Temp;Humidity;BMP_temperature;BMP_pressure;BME280_temperature;BME280_humidity;BME280_pressure;Samples;Min_cycle;Max_cycle;Signal;HPM_P1;HPM_P2
2022/08/19 00:00:15;;;;;;;7.53;6.90;;;;;;;;;;4986907;28;20692;-55
2022/08/19 00:02:41;;;;;;;8.87;7.07;;;;;;;;;;4980378;28;20237;-55
2022/08/19 00:05:07;;;;;;;7.47;6.87;;;;;;;;;;4988938;28;20803;-55
2022/08/19 00:07:34;;;;;;;7.93;7.33;;;;;;;;;;4988018;28;20597;-55
2022/08/19 00:10:00;;;;;;;7.83;7.13;;;;;;;;;;4987060;28;20177;-54
2022/08/19 00:12:26;;;;;;;7.80;7.10;;;;;;;;;;4984181;28;20552;-56
2022/08/19 00:14:53;;;;;;;8.43;7.70;;;;;;;;;;4988626;28;20547;-55
2022/08/19 00:17:20;;;;;;;8.63;7.83;;;;;;;;;;4997574;28;20509;-55
2022/08/19 00:19:46;;;;;;;6.90;6.30;;;;;;;;;;4986214;28;20661;-56
2022/08/19 00:22:12;;;;;;;7.47;6.87;;;;;;;;;;4986649;28;20203;-56
2022/08/19 00:24:40;;;;;;;7.27;6.67;;;;;;;;;;4994498;28;20187;-55
2022/08/19 00:27:06;;;;;;;6.80;6.30;;;;;;;;;;4990164;28;20184;-55
2022/08/19 00:29:33;;;;;;;8.07;7.37;;;;;;;;;;4987593;28;20655;-55
2022/08/19 00:31:59;;;;;;;7.43;6.83;;;;;;;;;;4987407;28;20181;-56
2022/08/19 00:34:28;;;;;;;7.40;6.73;;;;;;;;;;4969368;28;20185;-55
2022/08/19 00:36:55;;;;;;;7.90;7.30;;;;;;;;;;4987079;28;20178;-55
2022/08/19 00:39:21;;;;;;;7.40;6.70;;;;;;;;;;4982597;28;20227;-57
2022/08/19 00:41:48;;;;;;;7.30;6.60;;;;;;;;;;4987610;28;20291;-55
2022/08/19 00:44:25;;;;;;;7.33;6.50;;;;;;;;;;4972071;28;20696;-54
2022/08/19 00:46:52;;;;;;;7.10;6.57;;;;;;;;;;4969842;28;20657;-55
2022/08/19 00:49:24;;;;;;;7.80;7.00;;;;;;;;;;4987911;28;20517;-56
2022/08/19 00:51:52;;;;;;;8.00;7.30;;;;;;;;;;4975797;28;20562;-54
2022/08/19 00:54:18;;;;;;;7.07;6.50;;;;;;;;;;4987116;28;20637;-55
2022/08/19 00:56:45;;;;;;;6.87;6.37;;;;;;;;;;4989565;28;20755;-55
2022/08/19 00:59:11;;;;;;;7.50;6.80;;;;;;;;;;4983528;28;20533;-55
2022/08/19 01:01:39;;;;;;;8.27;6.77;;;;;;;;;;4969414;28;20179;-56
2022/08/19 01:04:05;;;;;;;7.00;6.50;;;;;;;;;;4986632;28;20187;-55
2022/08/19 01:06:32;;;;;;;7.50;6.90;;;;;;;;;;4987120;28;20639;-55
2022/08/19 01:08:59;;;;;;;7.47;6.90;;;;;;;;;;4986519;28;20193;-55
2022/08/19 01:11:26;;;;;;;7.20;6.60;;;;;;;;;;4986051;28;20183;-55
2022/08/19 01:13:53;;;;;;;6.43;5.93;;;;;;;;;;4982555;28;20190;-55
2022/08/19 01:16:21;;;;;;;7.67;7.07;;;;;;;;;;4987993;28;20238;-56
2022/08/19 01:18:47;;;;;;;7.80;7.10;;;;;;;;;;4985173;28;20193;-55
2022/08/19 01:21:34;;;;;;;7.30;6.70;;;;;;;;;;4988002;28;20179;-56
2022/08/19 01:24:01;;;;;;;7.60;7.00;;;;;;;;;;4986158;28;20174;-55
2022/08/19 01:26:27;;;;;;;7.23;6.70;;;;;;;;;;4971164;28;20523;-56
2022/08/19 01:28:55;;;;;;;8.00;7.23;;;;;;;;;;4985946;28;20706;-56
2022/08/19 01:31:23;;;;;;;7.40;6.80;;;;;;;;;;4989929;28;20171;-55
2022/08/19 01:33:50;;;;;;;6.83;6.33;;;;;;;;;;4989687;28;20183;-56
2022/08/19 01:36:22;;;;;;;7.10;6.50;;;;;;;;;;4996633;28;20540;-56
2022/08/19 01:38:49;;;;;;;7.90;7.30;;;;;;;;;;4989713;28;20902;-55
2022/08/19 01:41:16;;;;;;;7.47;6.77;;;;;;;;;;4967137;28;20229;-56
2022/08/19 01:43:42;;;;;;;7.30;6.80;;;;;;;;;;4991523;28;20603;-55
2022/08/19 01:46:08;;;;;;;7.63;7.03;;;;;;;;;;4991407;28;20535;-55
2022/08/19 01:48:35;;;;;;;7.77;7.17;;;;;;;;;;4988385;28;20267;-56
2022/08/19 01:51:01;;;;;;;7.30;6.67;;;;;;;;;;5004130;28;20217;-54
2022/08/19 01:53:27;;;;;;;7.93;7.23;;;;;;;;;;4990025;28;20189;-55
2022/08/19 01:55:54;;;;;;;8.40;7.80;;;;;;;;;;4989932;28;20651;-55
2022/08/19 01:58:21;;;;;;;7.60;6.97;;;;;;;;;;4986021;28;20277;-55
2022/08/19 02:00:48;;;;;;;8.27;7.63;;;;;;;;;;4987890;28;20638;-55
2022/08/19 02:03:14;;;;;;;10.97;10.13;;;;;;;;;;4969970;28;20618;-56
2022/08/19 02:05:41;;;;;;;8.17;7.57;;;;;;;;;;4986047;28;20324;-55
2022/08/19 02:08:07;;;;;;;8.07;7.47;;;;;;;;;;4990310;28;20183;-56
2022/08/19 02:10:34;;;;;;;7.47;6.90;;;;;;;;;;4989427;28;20183;-56
2022/08/19 02:13:00;;;;;;;8.50;7.67;;;;;;;;;;4991179;28;20399;-56
2022/08/19 02:15:26;;;;;;;8.33;7.63;;;;;;;;;;4990046;28;20250;-55
2022/08/19 02:17:52;;;;;;;8.33;7.63;;;;;;;;;;4971352;28;20194;-55
2022/08/19 02:20:18;;;;;;;8.10;7.40;;;;;;;;;;4989846;28;20175;-55
2022/08/19 02:22:44;;;;;;;7.90;7.30;;;;;;;;;;4987139;28;20603;-55
2022/08/19 02:25:12;;;;;;;8.63;7.93;;;;;;;;;;4989900;28;20185;-55
2022/08/19 02:27:38;;;;;;;8.03;7.37;;;;;;;;;;4990083;28;20538;-55
2022/08/19 02:30:06;;;;;;;8.30;7.67;;;;;;;;;;4988806;28;20708;-55
2022/08/19 02:32:33;;;;;;;7.87;7.27;;;;;;;;;;4988492;28;20263;-55
2022/08/19 02:34:59;;;;;;;8.00;7.40;;;;;;;;;;4985925;28;20187;-56
2022/08/19 02:40:10;;;;;;;7.33;6.73;;;;;;;;;;4986756;28;20253;-55
2022/08/19 02:42:36;;;;;;;9.17;8.27;;;;;;;;;;4989750;28;20803;-56
2022/08/19 02:45:02;;;;;;;7.60;7.00;;;;;;;;;;4985619;28;20175;-55
2022/08/19 02:47:28;;;;;;;8.33;7.63;;;;;;;;;;4988795;28;20634;-55
2022/08/19 02:49:54;;;;;;;7.90;7.13;;;;;;;;;;4988046;28;20728;-55
2022/08/19 02:52:23;;;;;;;8.80;8.10;;;;;;;;;;4986699;28;20658;-57
2022/08/19 02:54:49;;;;;;;8.83;8.03;;;;;;;;;;4987086;28;20183;-56
2022/08/19 02:57:15;;;;;;;8.70;8.10;;;;;;;;;;4982933;28;20254;-56
2022/08/19 02:59:41;;;;;;;8.80;7.90;;;;;;;;;;4988935;28;20240;-56
2022/08/19 03:02:08;;;;;;;8.50;7.90;;;;;;;;;;5003654;28;20589;-57
2022/08/19 03:04:34;;;;;;;8.57;7.97;;;;;;;;;;4987938;28;20245;-55
2022/08/19 03:07:00;;;;;;;7.70;7.10;;;;;;;;;;4989882;28;20186;-56
2022/08/19 03:09:26;;;;;;;8.03;7.43;;;;;;;;;;4988484;28;20188;-57
2022/08/19 03:11:52;;;;;;;8.57;7.77;;;;;;;;;;4990471;28;20217;-56
2022/08/19 03:14:18;;;;;;;7.73;7.03;;;;;;;;;;4971862;28;20680;-56
2022/08/19 03:16:47;;;;;;;20.07;18.83;;;;;;;;;;4993971;28;20180;-56
2022/08/19 03:19:13;;;;;;;7.60;7.00;;;;;;;;;;4986954;28;20183;-55
2022/08/19 03:21:40;;;;;;;8.37;7.67;;;;;;;;;;5004190;28;20593;-55
2022/08/19 03:24:08;;;;;;;7.73;7.13;;;;;;;;;;4987904;28;20183;-56
2022/08/19 03:26:34;;;;;;;8.00;7.40;;;;;;;;;;4972031;28;20234;-55
2022/08/19 03:29:04;;;;;;;8.17;7.33;;;;;;;;;;4987115;28;20586;-56
2022/08/19 03:31:31;;;;;;;10.37;9.67;;;;;;;;;;4999471;28;20274;-55
2022/08/19 03:33:57;;;;;;;8.57;7.77;;;;;;;;;;4987925;28;20539;-56
2022/08/19 03:36:24;;;;;;;8.67;7.87;;;;;;;;;;4988535;28;20449;-56
2022/08/19 03:38:59;;;;;;;7.60;7.00;;;;;;;;;;4988543;28;20186;-57
2022/08/19 03:41:26;;;;;;;8.77;8.07;;;;;;;;;;4993491;28;20793;-58
2022/08/19 03:43:53;;;;;;;7.97;7.13;;;;;;;;;;4989455;28;20285;-58
2022/08/19 03:46:24;;;;;;;7.97;7.37;;;;;;;;;;4991025;28;20225;-57
2022/08/19 03:48:53;;;;;;;8.00;7.30;;;;;;;;;;4986135;28;20179;-57
2022/08/19 03:51:24;;;;;;;8.33;7.57;;;;;;;;;;4989273;28;20329;-57
2022/08/19 03:53:51;;;;;;;8.90;7.77;;;;;;;;;;4986026;28;20175;-57
2022/08/19 03:56:17;;;;;;;8.83;8.03;;;;;;;;;;4988981;28;20262;-57
2022/08/19 03:58:44;;;;;;;8.37;7.63;;;;;;;;;;4989642;28;20218;-57
2022/08/19 04:01:11;;;;;;;11.03;10.27;;;;;;;;;;4985339;28;20187;-57
2022/08/19 04:03:38;;;;;;;8.70;7.80;;;;;;;;;;4987842;28;20242;-57
2022/08/19 04:06:23;;;;;;;8.53;7.83;;;;;;;;;;4987634;28;20257;-57
2022/08/19 04:08:50;;;;;;;7.77;7.17;;;;;;;;;;4982896;28;20700;-57
2022/08/19 04:11:18;;;;;;;7.20;6.60;;;;;;;;;;4987300;28;20645;-57
2022/08/19 04:13:44;;;;;;;7.70;7.10;;;;;;;;;;4986847;28;20266;-59
2022/08/19 04:16:11;;;;;;;9.00;8.30;;;;;;;;;;4967446;28;21615;-58
2022/08/19 04:18:38;;;;;;;9.13;8.43;;;;;;;;;;4986067;28;20179;-58
2022/08/19 04:21:04;;;;;;;9.20;8.33;;;;;;;;;;4988080;28;20182;-59
2022/08/19 04:23:30;;;;;;;9.67;8.87;;;;;;;;;;4982652;28;20549;-57
2022/08/19 04:25:57;;;;;;;8.73;8.13;;;;;;;;;;4988362;28;20185;-57
2022/08/19 04:28:26;;;;;;;9.27;8.47;;;;;;;;;;4979738;28;20206;-57
2022/08/19 04:30:54;;;;;;;9.90;9.10;;;;;;;;;;4974921;28;20214;-57
2022/08/19 04:33:22;;;;;;;11.53;10.63;;;;;;;;;;4987713;28;20187;-57
2022/08/19 04:35:57;;;;;;;9.70;8.97;;;;;;;;;;4987768;28;20261;-57
2022/08/19 04:38:24;;;;;;;9.70;8.80;;;;;;;;;;4982369;28;20184;-57
2022/08/19 04:43:37;;;;;;;9.73;8.73;;;;;;;;;;4988405;28;20733;-57
2022/08/19 04:46:07;;;;;;;9.47;8.63;;;;;;;;;;4985219;28;20641;-57
2022/08/19 04:48:34;;;;;;;9.30;8.60;;;;;;;;;;4988208;28;20272;-56
2022/08/19 04:51:00;;;;;;;9.03;8.33;;;;;;;;;;4975576;28;20173;-57
2022/08/19 04:53:30;;;;;;;10.07;8.67;;;;;;;;;;4986695;28;20713;-57
2022/08/19 04:55:57;;;;;;;9.33;8.53;;;;;;;;;;4972792;28;20658;-57
2022/08/19 04:58:24;;;;;;;11.37;10.47;;;;;;;;;;4989497;28;20579;-57
2022/08/19 05:00:50;;;;;;;14.37;13.27;;;;;;;;;;4987095;28;20188;-57
2022/08/19 05:03:17;;;;;;;10.40;9.50;;;;;;;;;;4985343;28;20202;-57
2022/08/19 05:05:44;;;;;;;11.63;10.63;;;;;;;;;;4986261;28;20705;-57
2022/08/19 05:08:10;;;;;;;11.37;10.37;;;;;;;;;;4986221;28;20178;-57
2022/08/19 05:10:37;;;;;;;12.50;11.27;;;;;;;;;;4987487;28;20185;-57
2022/08/19 05:13:04;;;;;;;11.47;10.57;;;;;;;;;;4988411;28;20621;-57
2022/08/19 05:15:30;;;;;;;12.73;11.43;;;;;;;;;;4977593;28;20196;-57
2022/08/19 05:23:25;;;;;;;14.03;12.47;;;;;;;;;;4984225;28;20307;-57
2022/08/19 05:25:52;;;;;;;12.63;11.33;;;;;;;;;;4984806;28;20204;-56
2022/08/19 05:28:19;;;;;;;14.63;12.37;;;;;;;;;;4982723;28;20544;-56
2022/08/19 05:30:45;;;;;;;14.37;13.17;;;;;;;;;;4989802;28;20754;-55
2022/08/19 05:33:12;;;;;;;13.23;11.97;;;;;;;;;;4968397;28;20186;-56
2022/08/19 05:35:40;;;;;;;15.33;13.97;;;;;;;;;;4992964;28;20178;-56
2022/08/19 05:38:07;;;;;;;15.93;14.37;;;;;;;;;;4980506;28;20243;-56
2022/08/19 05:40:35;;;;;;;16.47;14.10;;;;;;;;;;4990336;28;20241;-56
2022/08/19 05:43:06;;;;;;;16.90;15.20;;;;;;;;;;4989643;28;20236;-56
2022/08/19 05:45:33;;;;;;;16.40;14.67;;;;;;;;;;4998443;28;20189;-56
2022/08/19 05:47:59;;;;;;;17.60;15.70;;;;;;;;;;4997644;28;20541;-56
2022/08/19 05:50:26;;;;;;;20.37;16.30;;;;;;;;;;4992108;28;20266;-57
2022/08/19 05:52:52;;;;;;;21.90;19.80;;;;;;;;;;4982237;28;20182;-56
2022/08/19 05:55:20;;;;;;;23.20;21.10;;;;;;;;;;4989621;28;20633;-57
2022/08/19 05:57:49;;;;;;;23.90;21.10;;;;;;;;;;4989626;28;20192;-56
2022/08/19 06:00:15;;;;;;;22.37;20.10;;;;;;;;;;4988563;28;20620;-56
2022/08/19 06:02:42;;;;;;;22.73;20.40;;;;;;;;;;4989489;28;20711;-56
2022/08/19 06:05:09;;;;;;;23.37;21.17;;;;;;;;;;4972392;28;20227;-57
2022/08/19 06:07:39;;;;;;;26.20;23.57;;;;;;;;;;4985688;28;20183;-57
2022/08/19 06:10:07;;;;;;;28.93;25.83;;;;;;;;;;4998292;28;20708;-57
2022/08/19 06:12:34;;;;;;;30.03;27.23;;;;;;;;;;4971157;28;20905;-57
2022/08/19 06:15:07;;;;;;;29.63;26.60;;;;;;;;;;4973241;28;20191;-57
2022/08/19 06:17:34;;;;;;;27.80;25.13;;;;;;;;;;4971888;28;20196;-57
2022/08/19 06:20:01;;;;;;;32.03;28.93;;;;;;;;;;4994514;28;20183;-57
2022/08/19 06:22:30;;;;;;;32.63;29.33;;;;;;;;;;4971804;28;20234;-57
2022/08/19 06:24:56;;;;;;;37.93;34.23;;;;;;;;;;4991044;28;20880;-57
2022/08/19 06:27:23;;;;;;;38.73;34.73;;;;;;;;;;4989716;28;20191;-57
2022/08/19 06:29:49;;;;;;;44.10;39.50;;;;;;;;;;4988483;28;20182;-57
2022/08/19 06:32:23;;;;;;;42.77;38.20;;;;;;;;;;4974643;28;20191;-57
2022/08/19 06:34:50;;;;;;;37.67;33.97;;;;;;;;;;4987846;28;20183;-57
2022/08/19 06:37:16;;;;;;;39.27;35.53;;;;;;;;;;4991084;28;20223;-57
2022/08/19 06:39:43;;;;;;;38.63;34.83;;;;;;;;;;4994778;28;20188;-57
2022/08/19 06:42:11;;;;;;;38.20;34.40;;;;;;;;;;4995240;28;20249;-57
2022/08/19 06:44:38;;;;;;;36.73;33.07;;;;;;;;;;5001034;28;20646;-57
2022/08/19 06:47:05;;;;;;;40.00;35.47;;;;;;;;;;4995999;28;20206;-57
2022/08/19 06:49:31;;;;;;;41.60;37.20;;;;;;;;;;4979423;28;20183;-57
2022/08/19 06:51:58;;;;;;;39.57;35.60;;;;;;;;;;5005628;28;20180;-58
2022/08/19 06:54:25;;;;;;;41.47;37.17;;;;;;;;;;4983855;28;20265;-57
2022/08/19 06:56:52;;;;;;;41.40;37.03;;;;;;;;;;4967118;28;20188;-57
2022/08/19 06:59:19;;;;;;;40.90;36.87;;;;;;;;;;4972265;28;20553;-57
2022/08/19 07:02:03;;;;;;;44.33;39.83;;;;;;;;;;4991150;28;20214;-58
2022/08/19 07:04:33;;;;;;;47.13;41.23;;;;;;;;;;4987017;28;20705;-57
2022/08/19 07:07:07;;;;;;;42.43;38.03;;;;;;;;;;5001406;28;20190;-58
2022/08/19 07:09:36;;;;;;;44.00;39.47;;;;;;;;;;4987406;28;20243;-58
2022/08/19 07:12:04;;;;;;;42.43;37.83;;;;;;;;;;4983187;28;20379;-58
2022/08/19 07:14:30;;;;;;;44.13;39.43;;;;;;;;;;4969235;28;20211;-57
2022/08/19 07:16:57;;;;;;;44.03;39.40;;;;;;;;;;4981879;28;20175;-57
2022/08/19 07:19:26;;;;;;;46.07;39.60;;;;;;;;;;4993277;28;20175;-57
2022/08/19 07:21:53;;;;;;;42.07;37.80;;;;;;;;;;4988451;28;20218;-57
2022/08/19 07:24:23;;;;;;;42.33;37.87;;;;;;;;;;4989510;28;20160;-57
2022/08/19 07:26:50;;;;;;;38.13;34.27;;;;;;;;;;4982557;28;20613;-57
2022/08/19 07:29:16;;;;;;;38.80;34.70;;;;;;;;;;4988219;28;20678;-57
2022/08/19 07:31:43;;;;;;;35.63;31.97;;;;;;;;;;4978224;28;20258;-58
2022/08/19 07:34:14;;;;;;;33.40;29.97;;;;;;;;;;4988880;28;20210;-57
2022/08/19 07:36:41;;;;;;;32.73;29.27;;;;;;;;;;4987567;28;20193;-57
2022/08/19 07:39:13;;;;;;;29.37;26.47;;;;;;;;;;4993524;28;20187;-57
2022/08/19 07:41:40;;;;;;;30.63;27.63;;;;;;;;;;4993016;28;20218;-57
2022/08/19 07:44:07;;;;;;;29.87;26.67;;;;;;;;;;4984218;28;20712;-58
2022/08/19 07:46:34;;;;;;;29.37;26.30;;;;;;;;;;4987808;28;20190;-58
2022/08/19 07:49:04;;;;;;;28.17;25.27;;;;;;;;;;4995548;28;20175;-58
2022/08/19 07:51:30;;;;;;;32.33;29.15;;;;;;;;;;4981868;28;20467;-58
2022/08/19 07:53:56;;;;;;;28.37;25.53;;;;;;;;;;4970568;28;20194;-58
2022/08/19 07:56:25;;;;;;;31.83;27.00;;;;;;;;;;5000640;28;20660;-58
2022/08/19 07:58:52;;;;;;;28.83;25.80;;;;;;;;;;4982941;28;20532;-57
2022/08/19 08:01:20;;;;;;;27.00;24.20;;;;;;;;;;4952126;28;20188;-57
2022/08/19 08:09:21;;;;;;;27.30;21.87;;;;;;;;;;4988123;28;20223;-57
2022/08/19 08:11:52;;;;;;;22.73;20.13;;;;;;;;;;4996181;28;20693;-57
2022/08/19 08:14:31;;;;;;;21.63;19.43;;;;;;;;;;4978064;28;20691;-58
2022/08/19 08:16:57;;;;;;;20.67;18.67;;;;;;;;;;4970953;28;20236;-57
2022/08/19 08:19:24;;;;;;;21.93;17.93;;;;;;;;;;4983903;28;20233;-58
2022/08/19 08:21:50;;;;;;;20.97;18.90;;;;;;;;;;4988093;28;20180;-58
2022/08/19 08:24:17;;;;;;;21.77;19.67;;;;;;;;;;4984698;28;20175;-58
2022/08/19 08:26:43;;;;;;;21.67;18.83;;;;;;;;;;4963923;28;20255;-58
2022/08/19 08:29:11;;;;;;;20.60;18.63;;;;;;;;;;4986662;28;20180;-58
2022/08/19 08:31:41;;;;;;;20.10;18.30;;;;;;;;;;4982805;28;20190;-58
2022/08/19 08:34:07;;;;;;;19.83;17.80;;;;;;;;;;4987507;28;20608;-58
2022/08/19 08:36:40;;;;;;;20.07;17.97;;;;;;;;;;4986695;28;20172;-58
2022/08/19 08:39:06;;;;;;;20.27;18.47;;;;;;;;;;4987965;28;20695;-57
2022/08/19 08:41:32;;;;;;;19.47;17.40;;;;;;;;;;4988436;28;20649;-57
2022/08/19 08:43:59;;;;;;;17.53;15.90;;;;;;;;;;4962755;28;20210;-57
2022/08/19 08:46:26;;;;;;;19.03;17.13;;;;;;;;;;4971226;28;20657;-56
2022/08/19 08:49:01;;;;;;;19.20;17.30;;;;;;;;;;4970721;28;20217;-56
2022/08/19 08:51:30;;;;;;;17.87;16.07;;;;;;;;;;4966367;28;20267;-56
2022/08/19 08:53:57;;;;;;;18.77;17.00;;;;;;;;;;4981734;28;20181;-56
2022/08/19 08:56:23;;;;;;;21.33;19.23;;;;;;;;;;4983401;28;20181;-56
2022/08/19 08:58:55;;;;;;;19.40;17.50;;;;;;;;;;4985534;28;20178;-56
2022/08/19 09:01:22;;;;;;;21.10;19.13;;;;;;;;;;4985251;28;20320;-57
2022/08/19 09:03:48;;;;;;;25.30;22.60;;;;;;;;;;4972219;28;20568;-57
2022/08/19 09:06:28;;;;;;;23.23;20.87;;;;;;;;;;4967319;28;20248;-57
2022/08/19 09:09:15;;;;;;;22.80;20.47;;;;;;;;;;4986286;28;20169;-57
2022/08/19 09:11:50;;;;;;;19.43;17.60;;;;;;;;;;4997399;28;20270;-56
2022/08/19 09:14:40;;;;;;;21.43;19.43;;;;;;;;;;4978416;28;20179;-56
2022/08/19 09:17:07;;;;;;;24.00;21.63;;;;;;;;;;4982617;28;20437;-57
2022/08/19 09:19:34;;;;;;;22.00;19.90;;;;;;;;;;4952465;28;20271;-57
2022/08/19 09:22:00;;;;;;;21.07;19.07;;;;;;;;;;4994490;28;20200;-58
2022/08/19 09:24:26;;;;;;;20.93;18.93;;;;;;;;;;4969474;28;20205;-57
2022/08/19 09:26:52;;;;;;;22.57;20.33;;;;;;;;;;4990392;28;20672;-57
2022/08/19 09:29:20;;;;;;;20.27;18.23;;;;;;;;;;4971934;28;20179;-57
2022/08/19 09:31:46;;;;;;;21.03;18.93;;;;;;;;;;4976327;28;20188;-57
2022/08/19 09:34:13;;;;;;;22.70;20.27;;;;;;;;;;4982471;28;20187;-58
2022/08/19 09:36:39;;;;;;;21.17;19.17;;;;;;;;;;4970142;28;20282;-58
2022/08/19 09:39:06;;;;;;;19.87;17.87;;;;;;;;;;4988059;28;20175;-57
2022/08/19 09:41:33;;;;;;;21.37;19.37;;;;;;;;;;4996208;28;20784;-57
2022/08/19 09:43:59;;;;;;;23.03;20.47;;;;;;;;;;4986258;28;20215;-57
2022/08/19 09:46:27;;;;;;;23.87;21.47;;;;;;;;;;4986987;28;20257;-57
2022/08/19 09:48:54;;;;;;;25.10;22.17;;;;;;;;;;4987424;28;20218;-57
2022/08/19 09:51:26;;;;;;;21.53;19.53;;;;;;;;;;4985994;28;20238;-58
2022/08/19 09:53:57;;;;;;;22.87;20.47;;;;;;;;;;4986831;28;20258;-57
2022/08/19 09:56:23;;;;;;;22.83;19.67;;;;;;;;;;4976365;28;20190;-57
2022/08/19 09:58:50;;;;;;;21.80;19.67;;;;;;;;;;4990722;28;20249;-58
2022/08/19 10:01:24;;;;;;;23.00;20.70;;;;;;;;;;4993099;28;20182;-58
2022/08/19 10:03:53;;;;;;;24.03;20.50;;;;;;;;;;4979853;28;20199;-58
2022/08/19 10:06:20;;;;;;;22.27;20.03;;;;;;;;;;4972832;28;20331;-58
2022/08/19 10:08:46;;;;;;;24.30;20.10;;;;;;;;;;4990274;28;20222;-58
2022/08/19 10:11:22;;;;;;;22.20;19.40;;;;;;;;;;4982321;28;20203;-58
2022/08/19 10:13:49;;;;;;;21.93;19.63;;;;;;;;;;4986363;28;20186;-56
2022/08/19 10:16:18;;;;;;;21.17;18.90;;;;;;;;;;4977838;28;20665;-57
2022/08/19 10:18:44;;;;;;;19.97;18.00;;;;;;;;;;4986832;28;20688;-54
2022/08/19 10:21:19;;;;;;;19.20;17.30;;;;;;;;;;4997251;28;20171;-54
2022/08/19 10:23:46;;;;;;;19.23;17.33;;;;;;;;;;4957171;28;20213;-55
2022/08/19 10:26:14;;;;;;;20.33;18.20;;;;;;;;;;4975655;28;20176;-58
2022/08/19 10:28:40;;;;;;;18.87;16.93;;;;;;;;;;4982834;28;20225;-59
2022/08/19 10:31:08;;;;;;;18.90;17.13;;;;;;;;;;4984458;28;20551;-59
2022/08/19 10:33:35;;;;;;;18.67;15.23;;;;;;;;;;4963870;28;20263;-58
2022/08/19 10:36:02;;;;;;;16.97;15.23;;;;;;;;;;4987097;28;20552;-59
2022/08/19 10:38:28;;;;;;;15.70;14.30;;;;;;;;;;4987176;28;20183;-58
2022/08/19 10:40:55;;;;;;;19.80;17.20;;;;;;;;;;4986414;28;20225;-58
2022/08/19 10:43:21;;;;;;;18.97;15.37;;;;;;;;;;4985189;28;20734;-58
2022/08/19 10:45:58;;;;;;;16.03;14.53;;;;;;;;;;4992910;28;20704;-58
2022/08/19 10:48:25;;;;;;;19.73;15.17;;;;;;;;;;4988916;28;20191;-59
2022/08/19 10:53:35;;;;;;;17.83;15.63;;;;;;;;;;4988213;28;20292;-58
2022/08/19 10:58:50;;;;;;;15.17;13.57;;;;;;;;;;4984697;28;20351;-58
2022/08/19 11:01:16;;;;;;;13.80;12.70;;;;;;;;;;4967457;28;20191;-57
2022/08/19 11:03:45;;;;;;;14.53;13.20;;;;;;;;;;4978599;28;20207;-59
2022/08/19 11:06:11;;;;;;;13.93;12.67;;;;;;;;;;4976226;28;20201;-57
2022/08/19 11:08:37;;;;;;;16.17;14.60;;;;;;;;;;4977579;28;20621;-58
2022/08/19 11:11:05;;;;;;;12.43;11.00;;;;;;;;;;4988090;28;20180;-57
2022/08/19 11:13:33;;;;;;;14.00;12.70;;;;;;;;;;4985770;28;20392;-58
2022/08/19 11:16:02;;;;;;;15.17;13.43;;;;;;;;;;4970426;28;20645;-58
2022/08/19 11:18:29;;;;;;;12.70;11.50;;;;;;;;;;4987370;28;20270;-57
2022/08/19 11:20:55;;;;;;;13.73;12.30;;;;;;;;;;4978602;28;20315;-57
2022/08/19 11:23:27;;;;;;;14.87;12.20;;;;;;;;;;4979079;28;20214;-58
2022/08/19 11:25:53;;;;;;;12.90;11.73;;;;;;;;;;4985239;28;20602;-57
2022/08/19 11:28:19;;;;;;;12.10;11.10;;;;;;;;;;4984773;28;20643;-57
2022/08/19 11:30:46;;;;;;;14.13;11.30;;;;;;;;;;4984074;28;20202;-58
2022/08/19 11:33:12;;;;;;;11.67;9.60;;;;;;;;;;4980310;28;20635;-54
2022/08/19 11:35:40;;;;;;;13.23;10.07;;;;;;;;;;4970247;28;20245;-54
2022/08/19 11:38:06;;;;;;;11.30;10.07;;;;;;;;;;4985903;28;20241;-56
2022/08/19 11:40:33;;;;;;;12.30;11.10;;;;;;;;;;4966161;28;20295;-56
2022/08/19 11:42:59;;;;;;;15.00;10.93;;;;;;;;;;4962100;28;20208;-55
2022/08/19 11:45:26;;;;;;;11.33;10.30;;;;;;;;;;4983405;28;20508;-57
2022/08/19 11:47:53;;;;;;;12.93;11.57;;;;;;;;;;4991310;28;20188;-56
2022/08/19 11:50:19;;;;;;;12.90;11.50;;;;;;;;;;4970121;28;20210;-57
2022/08/19 11:52:46;;;;;;;11.87;10.67;;;;;;;;;;4983055;28;20183;-56
2022/08/19 11:55:13;;;;;;;10.87;9.80;;;;;;;;;;4991203;28;20256;-57
2022/08/19 11:57:40;;;;;;;12.77;11.07;;;;;;;;;;4988285;28;20191;-56
2022/08/19 12:00:08;;;;;;;8.43;7.63;;;;;;;;;;4970784;28;20180;-57
2022/08/19 12:02:34;;;;;;;7.40;6.80;;;;;;;;;;4973928;28;20686;-57
2022/08/19 12:05:02;;;;;;;10.00;7.27;;;;;;;;;;4997127;28;20211;-56
2022/08/19 12:07:33;;;;;;;9.17;8.30;;;;;;;;;;4968148;28;20187;-56
2022/08/19 12:10:00;;;;;;;8.90;8.20;;;;;;;;;;4955452;28;20183;-57
2022/08/19 12:12:27;;;;;;;8.87;7.47;;;;;;;;;;4983892;28;20187;-57
2022/08/19 12:14:56;;;;;;;9.97;8.93;;;;;;;;;;4984232;28;20251;-57
2022/08/19 12:17:30;;;;;;;10.97;8.47;;;;;;;;;;4964427;28;20175;-57
2022/08/19 12:19:56;;;;;;;9.50;8.43;;;;;;;;;;4984948;28;20790;-56
2022/08/19 12:22:23;;;;;;;11.53;9.40;;;;;;;;;;4986871;28;20603;-57
2022/08/19 12:24:50;;;;;;;8.73;7.80;;;;;;;;;;4985078;28;20934;-57
2022/08/19 12:27:16;;;;;;;8.50;7.67;;;;;;;;;;4987403;28;20666;-57
2022/08/19 12:29:49;;;;;;;8.57;7.07;;;;;;;;;;4988647;28;20528;-57
2022/08/19 12:32:16;;;;;;;7.27;6.57;;;;;;;;;;4988814;28;20171;-57
2022/08/19 12:34:43;;;;;;;9.37;6.27;;;;;;;;;;4988785;28;20171;-57
2022/08/19 12:37:10;;;;;;;7.10;6.40;;;;;;;;;;4963050;28;20176;-57
2022/08/19 12:39:41;;;;;;;7.47;6.30;;;;;;;;;;4966696;28;20613;-57
2022/08/19 12:42:08;;;;;;;9.03;7.20;;;;;;;;;;4984554;28;21040;-56
2022/08/19 12:44:35;;;;;;;9.13;7.97;;;;;;;;;;4986425;28;20248;-57
2022/08/19 12:47:02;;;;;;;11.00;8.93;;;;;;;;;;4967680;28;20464;-57
2022/08/19 12:49:29;;;;;;;7.67;7.07;;;;;;;;;;4987250;28;20440;-56
2022/08/19 12:51:57;;;;;;;7.27;6.57;;;;;;;;;;4984536;28;20187;-57
2022/08/19 12:54:23;;;;;;;5.97;5.37;;;;;;;;;;4964690;28;20668;-56
2022/08/19 12:56:50;;;;;;;7.27;5.67;;;;;;;;;;4967707;28;20184;-57
2022/08/19 12:59:17;;;;;;;8.97;5.57;;;;;;;;;;4966741;28;20228;-57
2022/08/19 13:01:44;;;;;;;7.90;7.30;;;;;;;;;;4980173;28;20192;-57
2022/08/19 13:04:10;;;;;;;8.63;7.93;;;;;;;;;;4985892;28;20233;-57
2022/08/19 13:06:36;;;;;;;8.17;7.47;;;;;;;;;;4992496;28;20199;-57
2022/08/19 13:09:03;;;;;;;11.33;7.00;;;;;;;;;;4987161;28;20259;-57
2022/08/19 13:11:32;;;;;;;8.60;5.70;;;;;;;;;;4993777;28;20198;-59
2022/08/19 13:13:58;;;;;;;5.10;4.70;;;;;;;;;;4987527;28;20179;-57
2022/08/19 13:16:28;;;;;;;6.03;5.43;;;;;;;;;;4995516;28;20586;-58
2022/08/19 13:18:55;;;;;;;5.83;4.60;;;;;;;;;;4993496;28;20184;-58
2022/08/19 13:21:23;;;;;;;6.97;6.27;;;;;;;;;;4987106;28;20181;-58
2022/08/19 13:23:49;;;;;;;6.83;6.17;;;;;;;;;;4986242;28;20657;-59
2022/08/19 13:26:16;;;;;;;7.37;6.40;;;;;;;;;;4997503;28;20268;-57
2022/08/19 13:34:16;;;;;;;7.77;7.07;;;;;;;;;;4992967;28;20190;-58
2022/08/19 13:36:42;;;;;;;6.50;5.90;;;;;;;;;;4995732;28;20235;-58
2022/08/19 13:39:09;;;;;;;7.80;7.10;;;;;;;;;;4990080;28;20184;-58
2022/08/19 13:41:35;;;;;;;6.47;5.97;;;;;;;;;;4990690;28;20236;-58
2022/08/19 13:44:02;;;;;;;7.40;5.20;;;;;;;;;;4962821;28;20220;-58
2022/08/19 13:46:28;;;;;;;6.00;5.47;;;;;;;;;;4987950;28;20663;-57
2022/08/19 13:48:57;;;;;;;6.03;5.53;;;;;;;;;;4987327;28;20163;-58
2022/08/19 13:51:24;;;;;;;7.17;6.37;;;;;;;;;;4990606;28;20177;-58
2022/08/19 13:53:50;;;;;;;6.90;6.00;;;;;;;;;;4966870;28;20185;-57
2022/08/19 13:56:19;;;;;;;7.83;5.93;;;;;;;;;;4983808;28;20215;-58
2022/08/19 13:58:46;;;;;;;7.97;6.17;;;;;;;;;;4994175;28;20574;-57
2022/08/19 14:01:12;;;;;;;8.30;7.60;;;;;;;;;;4996320;28;20181;-58
2022/08/19 14:03:38;;;;;;;5.40;4.90;;;;;;;;;;4994078;28;20208;-56
2022/08/19 14:06:04;;;;;;;6.63;6.03;;;;;;;;;;4988952;28;20201;-58
2022/08/19 14:08:34;;;;;;;6.63;5.70;;;;;;;;;;4975331;28;21049;-57
2022/08/19 14:11:01;;;;;;;8.63;6.53;;;;;;;;;;4989840;28;20181;-57
2022/08/19 14:13:27;;;;;;;6.60;6.00;;;;;;;;;;4988380;28;20209;-58
2022/08/19 14:15:53;;;;;;;11.13;5.43;;;;;;;;;;4989903;28;20539;-56
2022/08/19 14:18:19;;;;;;;8.07;5.83;;;;;;;;;;4986829;28;20177;-58
2022/08/19 14:20:45;;;;;;;6.67;5.23;;;;;;;;;;4996159;28;20804;-57
2022/08/19 14:23:12;;;;;;;8.27;7.43;;;;;;;;;;4988100;28;20292;-56
2022/08/19 14:25:38;;;;;;;5.87;5.23;;;;;;;;;;4994604;28;20757;-55
2022/08/19 14:28:06;;;;;;;7.97;5.93;;;;;;;;;;4967682;28;20181;-55
2022/08/19 14:30:34;;;;;;;7.30;5.73;;;;;;;;;;4987436;28;20192;-56
2022/08/19 14:33:01;;;;;;;8.70;5.20;;;;;;;;;;4984907;28;20173;-54
2022/08/19 14:35:29;;;;;;;6.90;6.27;;;;;;;;;;4986446;28;20201;-55
2022/08/19 14:37:57;;;;;;;6.33;5.73;;;;;;;;;;4985907;28;20181;-55
2022/08/19 14:40:27;;;;;;;6.27;5.30;;;;;;;;;;4988971;28;20528;-55
2022/08/19 14:43:03;;;;;;;6.13;5.53;;;;;;;;;;4982563;28;20223;-55
2022/08/19 14:45:30;;;;;;;5.77;4.67;;;;;;;;;;4990709;28;20273;-55
2022/08/19 14:47:56;;;;;;;7.70;5.30;;;;;;;;;;4989505;28;20187;-58
2022/08/19 14:50:22;;;;;;;7.00;5.50;;;;;;;;;;4989269;28;20858;-58
2022/08/19 14:52:49;;;;;;;7.30;4.93;;;;;;;;;;4989513;28;20743;-58
2022/08/19 14:55:16;;;;;;;4.97;4.47;;;;;;;;;;4988383;28;20198;-57
2022/08/19 14:57:42;;;;;;;6.53;5.13;;;;;;;;;;4987238;28;20722;-58
2022/08/19 15:00:13;;;;;;;5.68;5.10;;;;;;;;;;4980800;28;20436;-57